createdAt,value
2022-12-16T00:03:03.060Z,59.35
2022-12-16T00:05:29.922Z,59.92
2022-12-16T00:07:56.619Z,61.72
2022-12-16T00:11:00.492Z,59.15
2022-12-16T00:13:27.646Z,65.25
2022-12-16T00:15:54.384Z,56.60
2022-12-16T00:18:21.430Z,61.38
2022-12-16T00:20:48.910Z,65.75
2022-12-16T00:23:15.942Z,59.58
2022-12-16T00:25:43.461Z,64.47
2022-12-16T00:28:10.646Z,69.18
2022-12-16T00:30:37.438Z,73.07
2022-12-16T00:33:04.860Z,60.83
2022-12-16T00:35:31.718Z,47.65
2022-12-16T00:37:58.400Z,39.92
2022-12-16T00:40:25.293Z,43.30
2022-12-16T00:42:52.284Z,45.20
2022-12-16T00:45:19.039Z,42.65
2022-12-16T00:47:45.609Z,45.78
2022-12-16T00:50:12.753Z,43.22
2022-12-16T00:52:39.399Z,42.83
2022-12-16T00:55:06.277Z,47.33
2022-12-16T00:57:32.933Z,60.35
2022-12-16T00:59:59.706Z,54.90
2022-12-16T01:02:26.532Z,49.30
2022-12-16T01:04:53.930Z,57.35
2022-12-16T01:07:21.500Z,45.58
2022-12-16T01:09:48.145Z,45.35
2022-12-16T01:12:14.857Z,53.75
2022-12-16T01:14:41.500Z,53.10
2022-12-16T01:17:08.144Z,46.70
2022-12-16T01:19:34.792Z,45.58
2022-12-16T01:22:01.439Z,50.88
2022-12-16T01:24:28.041Z,47.38
2022-12-16T01:29:20.080Z,48.28
2022-12-16T01:31:46.884Z,43.50
2022-12-16T01:34:13.588Z,42.97
2022-12-16T01:36:40.262Z,37.22
2022-12-16T01:39:06.901Z,44.70
2022-12-16T01:44:13.148Z,42.72
2022-12-16T01:49:10.011Z,40.85
2022-12-16T01:51:38.448Z,41.38
2022-12-16T01:54:05.101Z,38.90
2022-12-16T01:56:33.252Z,41.03
2022-12-16T01:59:00.586Z,38.05
2022-12-16T02:01:27.612Z,44.55
2022-12-16T02:03:55.170Z,39.75
2022-12-16T02:06:22.269Z,45.92
2022-12-16T02:08:50.842Z,39.22
2022-12-16T02:11:37.833Z,38.53
2022-12-16T02:14:23.267Z,39.20
2022-12-16T02:16:55.579Z,38.72
2022-12-16T02:19:40.522Z,35.30
2022-12-16T02:22:07.180Z,32.13
2022-12-16T02:24:52.571Z,34.30
2022-12-16T02:27:45.050Z,31.85
2022-12-16T02:30:26.643Z,33.13
2022-12-16T02:32:53.324Z,37.20
2022-12-16T02:35:38.741Z,36.58
2022-12-16T02:38:18.111Z,39.20
2022-12-16T02:40:54.469Z,33.05
2022-12-16T02:43:21.452Z,32.42
2022-12-16T02:45:49.083Z,32.03
2022-12-16T02:48:16.105Z,34.00
2022-12-16T02:50:45.593Z,29.50
2022-12-16T02:53:12.644Z,34.85
2022-12-16T02:58:10.741Z,32.33
2022-12-16T03:05:41.094Z,41.97
2022-12-16T03:08:09.949Z,32.30
2022-12-16T03:10:43.217Z,32.03
2022-12-16T03:13:11.013Z,36.00
2022-12-16T03:15:39.624Z,37.17
2022-12-16T03:18:08.032Z,38.60
2022-12-16T03:23:10.217Z,39.30
2022-12-16T03:25:39.061Z,36.55
2022-12-16T03:28:21.085Z,39.33
2022-12-16T03:30:51.864Z,39.95
2022-12-16T03:33:30.329Z,36.10
2022-12-16T03:35:59.844Z,36.65
2022-12-16T03:38:27.505Z,40.95
2022-12-16T03:40:55.568Z,32.40
2022-12-16T03:43:23.124Z,35.60
2022-12-16T03:45:51.917Z,37.38
2022-12-16T03:48:22.742Z,36.33
2022-12-16T03:50:49.435Z,40.45
2022-12-16T03:53:16.121Z,38.40
2022-12-16T03:55:42.724Z,31.67
2022-12-16T03:58:09.397Z,39.53
2022-12-16T04:03:01.609Z,33.92
2022-12-16T04:05:28.698Z,36.40
2022-12-16T04:08:00.297Z,35.85
2022-12-16T04:10:47.163Z,46.75
2022-12-16T04:13:32.791Z,45.90
2022-12-16T04:16:18.575Z,62.22
2022-12-16T04:19:03.985Z,78.22
2022-12-16T04:24:19.880Z,43.95
2022-12-16T04:27:09.245Z,44.95
2022-12-16T04:30:00.092Z,40.90
2022-12-16T04:34:52.866Z,38.13
2022-12-16T04:37:37.850Z,36.30
2022-12-16T04:40:23.453Z,35.42
2022-12-16T04:48:46.982Z,46.42
2022-12-16T04:51:32.174Z,66.32
2022-12-16T04:54:17.265Z,51.95
2022-12-16T04:57:02.378Z,42.13
2022-12-16T04:59:47.465Z,33.17
2022-12-16T05:02:32.978Z,36.90
2022-12-16T05:05:18.326Z,32.73
2022-12-16T05:10:47.365Z,28.73
2022-12-16T05:16:16.590Z,32.92
2022-12-16T05:19:01.816Z,35.92
2022-12-16T05:21:47.149Z,38.97
2022-12-16T05:32:43.950Z,53.45
2022-12-16T05:35:29.237Z,41.78
2022-12-16T05:38:14.733Z,35.13
2022-12-16T05:41:05.918Z,39.25
2022-12-16T05:43:50.990Z,33.50
2022-12-16T05:46:36.362Z,32.90
2022-12-16T05:49:21.650Z,42.03
2022-12-16T05:54:50.433Z,66.80
2022-12-16T05:57:35.787Z,74.68
2022-12-16T06:00:21.170Z,73.40
2022-12-16T06:03:08.276Z,63.08
2022-12-16T06:05:53.723Z,67.95
2022-12-16T06:08:39.130Z,76.72
2022-12-16T06:11:24.401Z,81.10
2022-12-16T06:14:09.549Z,53.20
2022-12-16T06:16:54.820Z,62.10
2022-12-16T06:19:40.242Z,56.00
2022-12-16T06:22:25.376Z,52.65
2022-12-16T06:27:54.094Z,59.97
2022-12-16T06:33:23.451Z,63.05
2022-12-16T06:36:08.809Z,69.40
2022-12-16T06:38:53.858Z,98.78
2022-12-16T06:41:38.994Z,96.32
2022-12-16T06:47:08.114Z,87.68
2022-12-16T06:49:53.145Z,77.55
2022-12-16T06:52:38.487Z,67.10
2022-12-16T06:55:24.018Z,62.15
2022-12-16T06:58:14.816Z,126.50
2022-12-16T07:03:44.225Z,72.53
2022-12-16T07:06:29.660Z,62.40
2022-12-16T07:09:14.553Z,55.28
2022-12-16T07:14:43.689Z,49.55
2022-12-16T07:17:29.033Z,70.43
2022-12-16T07:19:55.644Z,70.97
2022-12-16T07:22:40.758Z,73.78
2022-12-16T07:25:26.085Z,72.05
2022-12-16T07:30:55.229Z,70.10
2022-12-16T07:33:40.298Z,45.95
2022-12-16T07:39:09.489Z,41.05
2022-12-16T07:47:23.021Z,56.85
2022-12-16T07:50:09.321Z,40.00
2022-12-16T07:52:55.484Z,34.72
2022-12-16T07:55:40.589Z,57.25
2022-12-16T07:58:25.820Z,92.35
2022-12-16T08:01:11.037Z,75.78
2022-12-16T08:09:24.255Z,62.70
2022-12-16T08:12:09.330Z,55.47
2022-12-16T08:14:54.310Z,49.33
2022-12-16T08:20:26.335Z,47.47
2022-12-16T08:23:11.386Z,55.60
2022-12-16T08:29:05.511Z,72.50
2022-12-16T08:34:43.234Z,57.97
2022-12-16T08:37:28.434Z,63.83
2022-12-16T08:40:34.483Z,56.50
2022-12-16T08:43:18.785Z,64.90
2022-12-16T08:46:04.069Z,64.22
2022-12-16T08:51:33.571Z,66.95
2022-12-16T08:57:02.520Z,55.78
2022-12-16T08:59:48.853Z,48.40
2022-12-16T09:02:35.274Z,52.78
2022-12-16T09:08:04.988Z,49.88
2022-12-16T09:10:50.352Z,56.73
2022-12-16T09:13:35.822Z,49.00
2022-12-16T09:16:21.506Z,49.92
2022-12-16T09:19:06.641Z,51.63
2022-12-16T09:24:36.298Z,40.00
2022-12-16T09:32:49.065Z,39.17
2022-12-16T09:35:34.568Z,46.25
2022-12-16T09:38:19.653Z,50.30
2022-12-16T09:41:05.070Z,38.95
2022-12-16T09:44:02.378Z,48.30
2022-12-16T09:46:53.961Z,46.95
2022-12-16T09:50:04.616Z,47.08
2022-12-16T09:52:52.481Z,40.97
2022-12-16T09:58:31.589Z,41.05
2022-12-16T10:01:16.923Z,36.88
2022-12-16T10:04:02.528Z,45.00
2022-12-16T10:07:00.151Z,34.40
2022-12-16T10:21:29.025Z,73.13
2022-12-16T10:24:32.791Z,73.85
2022-12-16T10:27:59.360Z,68.95
2022-12-16T10:30:44.503Z,63.80
2022-12-16T10:41:59.739Z,50.25
2022-12-16T10:47:30.033Z,51.72
2022-12-16T10:50:15.618Z,50.85
2022-12-16T10:53:10.236Z,44.70
2022-12-16T10:58:52.561Z,40.92
2022-12-16T11:01:41.884Z,40.65
2022-12-16T11:04:46.190Z,41.17
2022-12-16T11:07:49.570Z,37.92
2022-12-16T11:10:46.869Z,33.08
2022-12-16T11:13:39.847Z,49.10
2022-12-16T11:22:35.999Z,61.65
2022-12-16T11:25:38.375Z,58.72
2022-12-16T11:34:00.593Z,43.10
2022-12-16T11:36:45.914Z,40.75
2022-12-16T11:45:06.743Z,47.42
2022-12-16T11:47:59.918Z,46.92
2022-12-16T11:53:36.578Z,48.30
2022-12-16T11:59:22.068Z,39.58
2022-12-16T12:10:30.330Z,46.65
2022-12-16T12:16:45.122Z,46.00
2022-12-16T12:25:19.637Z,40.88
2022-12-16T12:28:07.918Z,45.33
2022-12-16T12:30:57.533Z,41.15
2022-12-16T12:33:49.192Z,37.15
2022-12-16T12:39:27.620Z,42.63
2022-12-16T12:42:21.993Z,39.70
2022-12-16T12:45:13.554Z,33.50
2022-12-16T12:48:01.568Z,30.42
2022-12-16T12:50:50.033Z,31.67
2022-12-16T12:53:52.023Z,28.58
2022-12-16T12:56:57.082Z,37.55
2022-12-16T13:02:39.657Z,34.13
2022-12-16T13:05:29.896Z,35.33
2022-12-16T13:08:34.667Z,35.42
2022-12-16T13:11:37.865Z,43.03
2022-12-16T13:20:47.993Z,38.85
2022-12-16T13:23:59.377Z,37.40
2022-12-16T13:26:48.787Z,32.25
2022-12-16T13:29:40.189Z,37.13
2022-12-16T13:32:25.550Z,37.38
2022-12-16T13:35:22.812Z,31.08
2022-12-16T13:38:30.592Z,31.58
2022-12-16T13:41:17.298Z,19.83
2022-12-16T13:52:46.860Z,19.85
2022-12-16T14:01:13.189Z,21.65
2022-12-16T14:04:00.759Z,19.92
2022-12-16T14:06:48.063Z,18.63
2022-12-16T14:09:48.761Z,20.70
2022-12-16T14:12:40.786Z,20.70
2022-12-16T14:15:38.895Z,20.02
2022-12-16T14:18:45.198Z,21.40
2022-12-16T14:21:34.183Z,17.38
2022-12-16T14:24:32.279Z,26.45
2022-12-16T14:27:17.767Z,24.10
2022-12-16T14:30:03.063Z,27.17
2022-12-16T14:32:50.241Z,23.05
2022-12-16T14:35:40.210Z,27.05
2022-12-16T14:41:38.418Z,29.38
2022-12-16T14:47:24.003Z,14.85
2022-12-16T14:50:21.862Z,18.23
2022-12-16T14:53:06.975Z,14.95
2022-12-16T14:58:41.629Z,18.13
2022-12-16T15:10:05.471Z,17.65
2022-12-16T15:12:55.974Z,16.88
2022-12-16T15:21:25.929Z,14.68
2022-12-16T15:24:11.485Z,20.07
2022-12-16T15:29:43.702Z,16.73
2022-12-16T15:32:44.262Z,25.65
2022-12-16T15:43:48.152Z,19.77
2022-12-16T15:49:23.083Z,21.90
2022-12-16T15:57:51.131Z,27.13
2022-12-16T16:00:46.976Z,23.75
2022-12-16T16:03:42.195Z,20.52
2022-12-16T16:06:41.258Z,22.95
2022-12-16T16:12:47.685Z,15.85
2022-12-16T16:18:19.547Z,15.40
2022-12-16T16:23:49.756Z,10.73
2022-12-16T16:26:36.184Z,22.85
2022-12-16T16:29:21.711Z,21.08
2022-12-16T16:37:35.434Z,17.27
2022-12-16T16:40:32.324Z,21.55
2022-12-16T16:49:09.953Z,25.30
2022-12-16T17:05:56.908Z,24.27
2022-12-16T17:08:42.505Z,25.35
2022-12-16T17:11:41.914Z,23.95
2022-12-16T17:14:30.093Z,25.88
2022-12-16T17:19:59.061Z,28.10
2022-12-16T17:22:44.554Z,48.53
2022-12-16T17:25:32.668Z,51.50
2022-12-16T17:33:48.721Z,79.03
2022-12-16T17:36:37.637Z,79.82
2022-12-16T18:04:20.175Z,78.57
2022-12-16T18:18:22.562Z,60.22
2022-12-16T18:21:07.808Z,65.55
2022-12-16T18:23:52.943Z,78.97
2022-12-16T18:26:38.366Z,73.45
2022-12-16T18:29:23.668Z,62.80
2022-12-16T18:32:09.047Z,73.32
2022-12-16T18:34:54.040Z,79.97
2022-12-16T18:37:39.420Z,113.18
2022-12-16T18:40:25.159Z,107.20
2022-12-16T18:45:54.068Z,76.38
2022-12-16T18:48:58.249Z,60.30
2022-12-16T18:51:43.506Z,50.88
2022-12-16T19:02:40.711Z,70.65
2022-12-16T19:08:14.249Z,83.60
2022-12-16T19:13:43.839Z,82.20
2022-12-16T19:16:29.193Z,73.93
2022-12-16T19:19:19.622Z,71.18
2022-12-16T19:30:18.002Z,48.63
2022-12-16T19:35:50.142Z,48.78
2022-12-16T19:38:35.146Z,51.63
2022-12-16T19:41:20.361Z,58.90
2022-12-16T19:44:06.721Z,79.97
2022-12-16T19:49:39.396Z,83.10
2022-12-16T19:52:28.901Z,87.35
2022-12-16T19:55:17.217Z,70.85
2022-12-16T19:58:03.085Z,64.95
2022-12-16T20:00:48.451Z,50.83
2022-12-16T20:14:37.330Z,52.03
2022-12-16T20:17:22.538Z,47.42
2022-12-16T20:20:07.576Z,57.53
2022-12-16T20:22:52.610Z,59.60
2022-12-16T20:25:41.574Z,56.83
2022-12-16T20:28:26.746Z,68.32
2022-12-16T20:31:12.086Z,80.35
2022-12-16T20:36:41.056Z,66.28
2022-12-16T20:39:28.270Z,53.95
2022-12-16T20:42:13.259Z,61.47
2022-12-16T20:47:42.660Z,58.88
2022-12-16T20:50:27.977Z,54.42
2022-12-16T20:53:13.427Z,49.05
2022-12-16T20:55:58.809Z,53.38
2022-12-16T20:58:44.197Z,57.20
2022-12-16T21:04:26.905Z,67.90
2022-12-16T21:09:56.235Z,75.68
2022-12-16T21:12:41.601Z,93.45
2022-12-16T21:15:27.081Z,87.28
2022-12-16T21:18:12.116Z,83.75
2022-12-16T21:20:57.009Z,69.13
2022-12-16T21:26:26.311Z,68.47
2022-12-16T21:29:11.349Z,73.65
2022-12-16T21:31:56.467Z,70.15
2022-12-16T21:34:41.680Z,74.38
2022-12-16T21:37:27.041Z,64.95
2022-12-16T21:40:12.167Z,65.35
2022-12-16T21:42:57.254Z,58.47
2022-12-16T21:45:42.512Z,63.40
2022-12-16T21:53:57.595Z,59.83
2022-12-16T21:56:43.677Z,81.38
2022-12-16T21:59:28.976Z,94.80
2022-12-16T22:05:17.787Z,84.55
2022-12-16T22:10:47.523Z,95.07
2022-12-16T22:13:32.611Z,96.18
2022-12-16T22:16:18.528Z,98.20
2022-12-16T22:32:43.491Z,102.97
2022-12-16T22:35:28.721Z,105.65
2022-12-16T22:43:47.782Z,99.95
2022-12-16T22:54:44.912Z,126.25
2022-12-16T22:57:30.423Z,146.65
2022-12-16T23:00:15.524Z,118.47
2022-12-16T23:05:44.828Z,133.77
2022-12-16T23:08:42.382Z,114.00
2022-12-16T23:14:35.624Z,87.10
2022-12-16T23:22:51.831Z,81.18
2022-12-16T23:25:37.285Z,84.05
2022-12-16T23:28:22.438Z,74.93
2022-12-16T23:31:14.463Z,67.70
2022-12-16T23:33:59.455Z,65.43
2022-12-16T23:36:45.051Z,70.50
2022-12-16T23:42:14.419Z,69.63
2022-12-16T23:44:59.498Z,80.30
2022-12-16T23:50:29.104Z,97.38
2022-12-16T23:53:23.967Z,103.30
2022-12-16T23:56:08.978Z,94.50
2022-12-16T23:58:56.253Z,100.85
